sensor_id;sensor_type;location;lat;lon;timestamp;P1;durP1;ratioP1;P2;durP2;ratioP2
12048;SDS011;6085;49.452;8.502;2023-06-01T00:01:02;2.53;;;2.22;;
12048;SDS011;6085;49.452;8.502;2023-06-01T00:05:04;3.05;;;1.70;;
12048;SDS011;6085;49.452;8.502;2023-06-01T00:09:08;2.28;;;1.90;;
12048;SDS011;6085;49.452;8.502;2023-06-01T00:13:10;2.95;;;2.50;;
12048;SDS011;6085;49.452;8.502;2023-06-01T00:17:12;2.58;;;2.33;;
12048;SDS011;6085;49.452;8.502;2023-06-01T00:21:14;3.30;;;2.53;;
12048;SDS011;6085;49.452;8.502;2023-06-01T00:25:17;3.72;;;2.80;;
12048;SDS011;6085;49.452;8.502;2023-06-01T00:29:19;3.38;;;2.20;;
12048;SDS011;6085;49.452;8.502;2023-06-01T00:33:21;3.22;;;2.25;;
12048;SDS011;6085;49.452;8.502;2023-06-01T00:37:23;2.60;;;2.40;;
12048;SDS011;6085;49.452;8.502;2023-06-01T00:41:26;2.53;;;2.33;;
12048;SDS011;6085;49.452;8.502;2023-06-01T00:45:28;2.83;;;2.33;;
12048;SDS011;6085;49.452;8.502;2023-06-01T00:49:30;2.75;;;2.47;;
12048;SDS011;6085;49.452;8.502;2023-06-01T00:53:32;2.90;;;2.45;;
12048;SDS011;6085;49.452;8.502;2023-06-01T00:57:36;2.47;;;2.28;;
12048;SDS011;6085;49.452;8.502;2023-06-01T01:01:38;4.07;;;2.30;;
12048;SDS011;6085;49.452;8.502;2023-06-01T01:05:42;2.50;;;2.20;;
12048;SDS011;6085;49.452;8.502;2023-06-01T01:09:44;3.22;;;2.60;;
12048;SDS011;6085;49.452;8.502;2023-06-01T01:13:52;2.70;;;2.42;;
12048;SDS011;6085;49.452;8.502;2023-06-01T01:18:03;2.67;;;2.47;;
12048;SDS011;6085;49.452;8.502;2023-06-01T01:22:12;3.40;;;2.60;;
12048;SDS011;6085;49.452;8.502;2023-06-01T01:26:28;4.50;;;2.88;;
12048;SDS011;6085;49.452;8.502;2023-06-01T01:30:44;3.75;;;2.65;;
12048;SDS011;6085;49.452;8.502;2023-06-01T01:34:48;5.22;;;2.53;;
12048;SDS011;6085;49.452;8.502;2023-06-01T01:38:51;2.55;;;2.33;;
12048;SDS011;6085;49.452;8.502;2023-06-01T01:42:53;2.50;;;2.15;;
12048;SDS011;6085;49.452;8.502;2023-06-01T01:46:59;4.55;;;2.60;;
12048;SDS011;6085;49.452;8.502;2023-06-01T01:51:10;4.88;;;2.63;;
12048;SDS011;6085;49.452;8.502;2023-06-01T01:55:16;3.15;;;2.35;;
12048;SDS011;6085;49.452;8.502;2023-06-01T01:59:23;3.90;;;2.88;;
12048;SDS011;6085;49.452;8.502;2023-06-01T02:03:28;3.40;;;2.58;;
12048;SDS011;6085;49.452;8.502;2023-06-01T02:07:30;4.20;;;2.70;;
12048;SDS011;6085;49.452;8.502;2023-06-01T02:11:35;5.40;;;2.78;;
12048;SDS011;6085;49.452;8.502;2023-06-01T02:15:37;3.13;;;2.60;;
12048;SDS011;6085;49.452;8.502;2023-06-01T02:19:40;5.10;;;2.60;;
12048;SDS011;6085;49.452;8.502;2023-06-01T02:23:43;3.78;;;2.92;;
12048;SDS011;6085;49.452;8.502;2023-06-01T02:27:45;4.13;;;2.88;;
12048;SDS011;6085;49.452;8.502;2023-06-01T02:31:47;5.68;;;3.08;;
12048;SDS011;6085;49.452;8.502;2023-06-01T02:35:52;5.00;;;3.08;;
12048;SDS011;6085;49.452;8.502;2023-06-01T02:39:54;3.47;;;2.80;;
12048;SDS011;6085;49.452;8.502;2023-06-01T02:43:56;5.82;;;3.20;;
12048;SDS011;6085;49.452;8.502;2023-06-01T02:47:57;4.10;;;2.65;;
12048;SDS011;6085;49.452;8.502;2023-06-01T02:52:01;3.20;;;2.40;;
12048;SDS011;6085;49.452;8.502;2023-06-01T02:56:03;3.47;;;2.40;;
12048;SDS011;6085;49.452;8.502;2023-06-01T03:00:05;2.47;;;2.28;;
12048;SDS011;6085;49.452;8.502;2023-06-01T03:04:15;3.95;;;2.28;;
12048;SDS011;6085;49.452;8.502;2023-06-01T03:08:19;3.80;;;2.70;;
12048;SDS011;6085;49.452;8.502;2023-06-01T03:12:21;4.32;;;2.47;;
12048;SDS011;6085;49.452;8.502;2023-06-01T03:16:23;3.55;;;2.70;;
12048;SDS011;6085;49.452;8.502;2023-06-01T03:20:25;2.78;;;2.20;;
12048;SDS011;6085;49.452;8.502;2023-06-01T03:24:29;4.82;;;2.85;;
12048;SDS011;6085;49.452;8.502;2023-06-01T03:28:31;4.35;;;2.80;;
12048;SDS011;6085;49.452;8.502;2023-06-01T03:32:33;2.97;;;2.63;;
12048;SDS011;6085;49.452;8.502;2023-06-01T03:36:35;3.15;;;2.75;;
12048;SDS011;6085;49.452;8.502;2023-06-01T03:40:39;2.83;;;2.60;;
12048;SDS011;6085;49.452;8.502;2023-06-01T03:44:41;3.70;;;2.80;;
12048;SDS011;6085;49.452;8.502;2023-06-01T03:48:43;5.88;;;2.85;;
12048;SDS011;6085;49.452;8.502;2023-06-01T03:52:45;3.88;;;2.60;;
12048;SDS011;6085;49.452;8.502;2023-06-01T03:56:48;5.00;;;2.63;;
12048;SDS011;6085;49.452;8.502;2023-06-01T04:00:50;3.20;;;2.90;;
12048;SDS011;6085;49.452;8.502;2023-06-01T04:04:53;4.13;;;3.08;;
12048;SDS011;6085;49.452;8.502;2023-06-01T04:08:56;2.78;;;2.35;;
12048;SDS011;6085;49.452;8.502;2023-06-01T04:13:02;4.22;;;2.97;;
12048;SDS011;6085;49.452;8.502;2023-06-01T04:17:04;3.22;;;2.50;;
12048;SDS011;6085;49.452;8.502;2023-06-01T04:21:07;3.25;;;2.67;;
12048;SDS011;6085;49.452;8.502;2023-06-01T04:25:10;3.38;;;2.40;;
12048;SDS011;6085;49.452;8.502;2023-06-01T04:29:14;7.38;;;2.60;;
12048;SDS011;6085;49.452;8.502;2023-06-01T04:33:19;4.43;;;2.42;;
12048;SDS011;6085;49.452;8.502;2023-06-01T04:37:22;4.20;;;2.40;;
12048;SDS011;6085;49.452;8.502;2023-06-01T04:41:24;3.80;;;2.78;;
12048;SDS011;6085;49.452;8.502;2023-06-01T04:45:28;5.82;;;2.90;;
12048;SDS011;6085;49.452;8.502;2023-06-01T04:49:33;4.70;;;3.00;;
12048;SDS011;6085;49.452;8.502;2023-06-01T04:53:37;3.05;;;2.40;;
12048;SDS011;6085;49.452;8.502;2023-06-01T04:57:38;2.85;;;2.55;;
12048;SDS011;6085;49.452;8.502;2023-06-01T05:01:45;5.10;;;3.20;;
12048;SDS011;6085;49.452;8.502;2023-06-01T05:05:46;4.20;;;2.45;;
12048;SDS011;6085;49.452;8.502;2023-06-01T05:09:48;4.00;;;2.80;;
12048;SDS011;6085;49.452;8.502;2023-06-01T05:13:50;2.70;;;2.30;;
12048;SDS011;6085;49.452;8.502;2023-06-01T05:17:56;3.63;;;2.67;;
12048;SDS011;6085;49.452;8.502;2023-06-01T05:21:58;2.90;;;2.45;;
12048;SDS011;6085;49.452;8.502;2023-06-01T05:26:00;3.75;;;2.25;;
12048;SDS011;6085;49.452;8.502;2023-06-01T05:30:03;4.13;;;2.28;;
12048;SDS011;6085;49.452;8.502;2023-06-01T05:34:07;4.85;;;2.60;;
12048;SDS011;6085;49.452;8.502;2023-06-01T05:38:09;4.45;;;2.70;;
12048;SDS011;6085;49.452;8.502;2023-06-01T05:42:10;4.15;;;2.42;;
12048;SDS011;6085;49.452;8.502;2023-06-01T05:46:12;5.70;;;2.80;;
12048;SDS011;6085;49.452;8.502;2023-06-01T05:50:16;4.00;;;2.50;;
12048;SDS011;6085;49.452;8.502;2023-06-01T05:54:18;2.63;;;2.20;;
12048;SDS011;6085;49.452;8.502;2023-06-01T05:58:20;3.75;;;2.60;;
12048;SDS011;6085;49.452;8.502;2023-06-01T06:02:22;4.13;;;2.20;;
12048;SDS011;6085;49.452;8.502;2023-06-01T06:06:26;3.15;;;2.20;;
12048;SDS011;6085;49.452;8.502;2023-06-01T06:10:28;4.20;;;2.22;;
12048;SDS011;6085;49.452;8.502;2023-06-01T06:14:30;3.72;;;2.45;;
12048;SDS011;6085;49.452;8.502;2023-06-01T06:18:32;2.95;;;2.33;;
12048;SDS011;6085;49.452;8.502;2023-06-01T06:22:36;3.15;;;2.15;;
12048;SDS011;6085;49.452;8.502;2023-06-01T06:26:38;3.42;;;2.05;;
12048;SDS011;6085;49.452;8.502;2023-06-01T06:30:40;5.28;;;2.03;;
12048;SDS011;6085;49.452;8.502;2023-06-01T06:34:42;3.38;;;2.15;;
12048;SDS011;6085;49.452;8.502;2023-06-01T06:38:46;2.80;;;1.98;;
12048;SDS011;6085;49.452;8.502;2023-06-01T06:42:48;3.25;;;2.33;;
12048;SDS011;6085;49.452;8.502;2023-06-01T06:46:50;4.57;;;2.40;;
12048;SDS011;6085;49.452;8.502;2023-06-01T06:50:52;3.05;;;1.92;;
12048;SDS011;6085;49.452;8.502;2023-06-01T06:54:56;3.88;;;2.00;;
12048;SDS011;6085;49.452;8.502;2023-06-01T06:58:58;2.55;;;2.10;;
12048;SDS011;6085;49.452;8.502;2023-06-01T07:03:01;3.33;;;2.38;;
12048;SDS011;6085;49.452;8.502;2023-06-01T07:07:03;4.28;;;2.20;;
12048;SDS011;6085;49.452;8.502;2023-06-01T07:11:07;3.53;;;2.15;;
12048;SDS011;6085;49.452;8.502;2023-06-01T07:15:09;2.72;;;2.03;;
12048;SDS011;6085;49.452;8.502;2023-06-01T07:19:11;4.07;;;2.50;;
12048;SDS011;6085;49.452;8.502;2023-06-01T07:23:14;3.60;;;2.20;;
12048;SDS011;6085;49.452;8.502;2023-06-01T07:27:18;2.95;;;2.40;;
12048;SDS011;6085;49.452;8.502;2023-06-01T07:31:20;2.00;;;1.80;;
12048;SDS011;6085;49.452;8.502;2023-06-01T07:35:22;3.00;;;2.10;;
12048;SDS011;6085;49.452;8.502;2023-06-01T07:39:24;4.28;;;2.10;;
12048;SDS011;6085;49.452;8.502;2023-06-01T07:43:28;5.72;;;2.63;;
12048;SDS011;6085;49.452;8.502;2023-06-01T07:47:30;2.58;;;2.22;;
12048;SDS011;6085;49.452;8.502;2023-06-01T07:51:32;3.28;;;2.20;;
12048;SDS011;6085;49.452;8.502;2023-06-01T07:55:34;3.50;;;2.20;;
12048;SDS011;6085;49.452;8.502;2023-06-01T07:59:37;6.15;;;2.20;;
12048;SDS011;6085;49.452;8.502;2023-06-01T08:03:41;4.30;;;2.20;;
12048;SDS011;6085;49.452;8.502;2023-06-01T08:07:44;3.58;;;2.20;;
12048;SDS011;6085;49.452;8.502;2023-06-01T08:11:47;3.00;;;2.30;;
12048;SDS011;6085;49.452;8.502;2023-06-01T08:15:51;2.40;;;2.05;;
12048;SDS011;6085;49.452;8.502;2023-06-01T08:19:53;3.38;;;1.98;;
12048;SDS011;6085;49.452;8.502;2023-06-01T08:23:56;3.17;;;2.53;;
12048;SDS011;6085;49.452;8.502;2023-06-01T08:27:58;3.47;;;2.30;;
12048;SDS011;6085;49.452;8.502;2023-06-01T08:32:02;2.83;;;2.15;;
12048;SDS011;6085;49.452;8.502;2023-06-01T08:36:04;4.30;;;2.30;;
12048;SDS011;6085;49.452;8.502;2023-06-01T08:40:07;2.58;;;2.25;;
12048;SDS011;6085;49.452;8.502;2023-06-01T08:44:10;2.70;;;2.40;;
12048;SDS011;6085;49.452;8.502;2023-06-01T08:48:16;3.22;;;2.15;;
12048;SDS011;6085;49.452;8.502;2023-06-01T08:52:20;3.50;;;2.53;;
12048;SDS011;6085;49.452;8.502;2023-06-01T08:56:23;4.05;;;2.42;;
12048;SDS011;6085;49.452;8.502;2023-06-01T09:00:25;3.30;;;2.33;;
12048;SDS011;6085;49.452;8.502;2023-06-01T09:04:29;3.75;;;2.45;;
12048;SDS011;6085;49.452;8.502;2023-06-01T09:08:34;4.13;;;2.80;;
12048;SDS011;6085;49.452;8.502;2023-06-01T09:12:37;5.40;;;2.42;;
12048;SDS011;6085;49.452;8.502;2023-06-01T09:16:41;3.08;;;2.33;;
12048;SDS011;6085;49.452;8.502;2023-06-01T09:20:44;3.35;;;2.40;;
12048;SDS011;6085;49.452;8.502;2023-06-01T09:24:55;4.97;;;2.60;;
12048;SDS011;6085;49.452;8.502;2023-06-01T09:28:58;4.78;;;2.50;;
12048;SDS011;6085;49.452;8.502;2023-06-01T09:33:09;4.05;;;2.53;;
12048;SDS011;6085;49.452;8.502;2023-06-01T09:37:14;2.40;;;2.20;;
12048;SDS011;6085;49.452;8.502;2023-06-01T09:41:17;2.97;;;2.25;;
12048;SDS011;6085;49.452;8.502;2023-06-01T09:45:21;3.83;;;2.80;;
12048;SDS011;6085;49.452;8.502;2023-06-01T09:49:24;2.65;;;2.22;;
12048;SDS011;6085;49.452;8.502;2023-06-01T09:53:38;2.80;;;2.20;;
12048;SDS011;6085;49.452;8.502;2023-06-01T09:57:41;2.70;;;2.40;;
12048;SDS011;6085;49.452;8.502;2023-06-01T10:01:43;4.15;;;2.40;;
12048;SDS011;6085;49.452;8.502;2023-06-01T10:05:48;2.92;;;2.42;;
12048;SDS011;6085;49.452;8.502;2023-06-01T10:09:53;4.60;;;3.10;;
12048;SDS011;6085;49.452;8.502;2023-06-01T10:13:57;3.22;;;2.42;;
12048;SDS011;6085;49.452;8.502;2023-06-01T10:18:00;4.55;;;2.47;;
12048;SDS011;6085;49.452;8.502;2023-06-01T10:22:03;4.30;;;2.20;;
12048;SDS011;6085;49.452;8.502;2023-06-01T10:26:09;5.00;;;2.50;;
12048;SDS011;6085;49.452;8.502;2023-06-01T10:30:15;8.80;;;2.63;;
12048;SDS011;6085;49.452;8.502;2023-06-01T10:34:35;3.50;;;2.20;;
12048;SDS011;6085;49.452;8.502;2023-06-01T10:38:38;3.65;;;2.17;;
12048;SDS011;6085;49.452;8.502;2023-06-01T10:42:42;2.75;;;2.10;;
12048;SDS011;6085;49.452;8.502;2023-06-01T10:46:45;3.38;;;2.13;;
12048;SDS011;6085;49.452;8.502;2023-06-01T10:50:47;2.75;;;2.20;;
12048;SDS011;6085;49.452;8.502;2023-06-01T10:55:19;3.17;;;2.22;;
12048;SDS011;6085;49.452;8.502;2023-06-01T10:59:24;5.38;;;2.30;;
12048;SDS011;6085;49.452;8.502;2023-06-01T11:03:42;4.57;;;2.40;;
12048;SDS011;6085;49.452;8.502;2023-06-01T11:07:44;5.72;;;2.30;;
12048;SDS011;6085;49.452;8.502;2023-06-01T11:11:59;4.80;;;2.40;;
12048;SDS011;6085;49.452;8.502;2023-06-01T11:20:37;6.15;;;2.47;;
12048;SDS011;6085;49.452;8.502;2023-06-01T11:24:40;2.53;;;2.33;;
12048;SDS011;6085;49.452;8.502;2023-06-01T11:28:48;3.38;;;2.10;;
12048;SDS011;6085;49.452;8.502;2023-06-01T11:32:51;3.40;;;2.08;;
12048;SDS011;6085;49.452;8.502;2023-06-01T11:36:55;2.15;;;1.95;;
12048;SDS011;6085;49.452;8.502;2023-06-01T11:40:58;2.38;;;1.92;;
12048;SDS011;6085;49.452;8.502;2023-06-01T11:45:01;3.95;;;2.15;;
12048;SDS011;6085;49.452;8.502;2023-06-01T11:49:06;2.00;;;1.90;;
12048;SDS011;6085;49.452;8.502;2023-06-01T11:53:09;2.42;;;2.22;;
12048;SDS011;6085;49.452;8.502;2023-06-01T11:57:12;3.75;;;2.10;;
12048;SDS011;6085;49.452;8.502;2023-06-01T12:01:14;3.88;;;2.08;;
12048;SDS011;6085;49.452;8.502;2023-06-01T12:05:17;2.90;;;2.28;;
12048;SDS011;6085;49.452;8.502;2023-06-01T12:09:19;3.72;;;2.25;;
12048;SDS011;6085;49.452;8.502;2023-06-01T12:13:22;2.25;;;2.05;;
12048;SDS011;6085;49.452;8.502;2023-06-01T12:17:24;4.07;;;2.20;;
12048;SDS011;6085;49.452;8.502;2023-06-01T12:21:29;3.08;;;2.10;;
12048;SDS011;6085;49.452;8.502;2023-06-01T12:25:32;2.20;;;2.00;;
12048;SDS011;6085;49.452;8.502;2023-06-01T12:29:37;3.85;;;2.15;;
12048;SDS011;6085;49.452;8.502;2023-06-01T12:33:42;3.03;;;2.22;;
12048;SDS011;6085;49.452;8.502;2023-06-01T12:37:46;2.97;;;2.10;;
12048;SDS011;6085;49.452;8.502;2023-06-01T12:42:04;3.58;;;2.20;;
12048;SDS011;6085;49.452;8.502;2023-06-01T12:46:06;4.18;;;2.33;;
12048;SDS011;6085;49.452;8.502;2023-06-01T12:50:18;4.80;;;2.33;;
12048;SDS011;6085;49.452;8.502;2023-06-01T12:54:21;4.28;;;2.22;;
12048;SDS011;6085;49.452;8.502;2023-06-01T12:58:24;3.15;;;2.20;;
12048;SDS011;6085;49.452;8.502;2023-06-01T13:02:28;4.32;;;2.25;;
12048;SDS011;6085;49.452;8.502;2023-06-01T13:06:30;3.88;;;2.40;;
12048;SDS011;6085;49.452;8.502;2023-06-01T13:10:33;4.00;;;2.10;;
12048;SDS011;6085;49.452;8.502;2023-06-01T13:14:35;5.30;;;2.38;;
12048;SDS011;6085;49.452;8.502;2023-06-01T13:18:37;3.78;;;2.33;;
12048;SDS011;6085;49.452;8.502;2023-06-01T13:22:39;2.33;;;2.08;;
12048;SDS011;6085;49.452;8.502;2023-06-01T13:26:43;5.32;;;2.38;;
12048;SDS011;6085;49.452;8.502;2023-06-01T13:30:45;2.70;;;2.15;;
12048;SDS011;6085;49.452;8.502;2023-06-01T13:34:47;3.03;;;2.00;;
12048;SDS011;6085;49.452;8.502;2023-06-01T13:38:49;3.95;;;2.80;;
12048;SDS011;6085;49.452;8.502;2023-06-01T13:42:53;3.60;;;2.28;;
12048;SDS011;6085;49.452;8.502;2023-06-01T13:46:56;2.60;;;2.20;;
12048;SDS011;6085;49.452;8.502;2023-06-01T13:50:58;2.60;;;2.25;;
12048;SDS011;6085;49.452;8.502;2023-06-01T13:55:00;3.58;;;2.05;;
12048;SDS011;6085;49.452;8.502;2023-06-01T13:59:04;2.50;;;2.20;;
12048;SDS011;6085;49.452;8.502;2023-06-01T14:03:06;2.90;;;2.10;;
12048;SDS011;6085;49.452;8.502;2023-06-01T14:07:08;5.82;;;2.13;;
12048;SDS011;6085;49.452;8.502;2023-06-01T14:11:10;3.35;;;2.25;;
12048;SDS011;6085;49.452;8.502;2023-06-01T14:15:13;2.28;;;2.03;;
12048;SDS011;6085;49.452;8.502;2023-06-01T14:19:15;2.20;;;2.00;;
12048;SDS011;6085;49.452;8.502;2023-06-01T14:23:17;2.90;;;2.08;;
12048;SDS011;6085;49.452;8.502;2023-06-01T14:27:19;5.70;;;2.13;;
12048;SDS011;6085;49.452;8.502;2023-06-01T14:31:24;2.83;;;2.30;;
12048;SDS011;6085;49.452;8.502;2023-06-01T14:35:26;3.90;;;2.00;;
12048;SDS011;6085;49.452;8.502;2023-06-01T14:39:28;2.28;;;1.88;;
12048;SDS011;6085;49.452;8.502;2023-06-01T14:43:30;10.00;;;3.17;;
12048;SDS011;6085;49.452;8.502;2023-06-01T14:47:33;3.05;;;2.17;;
12048;SDS011;6085;49.452;8.502;2023-06-01T14:51:35;3.28;;;2.30;;
12048;SDS011;6085;49.452;8.502;2023-06-01T14:55:38;4.47;;;2.25;;
12048;SDS011;6085;49.452;8.502;2023-06-01T14:59:40;4.68;;;1.80;;
12048;SDS011;6085;49.452;8.502;2023-06-01T15:03:44;2.25;;;1.90;;
12048;SDS011;6085;49.452;8.502;2023-06-01T15:07:46;2.40;;;2.20;;
12048;SDS011;6085;49.452;8.502;2023-06-01T15:11:48;3.05;;;1.90;;
12048;SDS011;6085;49.452;8.502;2023-06-01T15:15:50;4.22;;;2.25;;
12048;SDS011;6085;49.452;8.502;2023-06-01T15:19:53;2.53;;;1.90;;
12048;SDS011;6085;49.452;8.502;2023-06-01T15:23:55;3.53;;;2.08;;
12048;SDS011;6085;49.452;8.502;2023-06-01T15:27:57;2.63;;;1.95;;
12048;SDS011;6085;49.452;8.502;2023-06-01T15:31:58;2.92;;;2.28;;
12048;SDS011;6085;49.452;8.502;2023-06-01T15:36:02;3.08;;;2.00;;
12048;SDS011;6085;49.452;8.502;2023-06-01T15:40:11;2.75;;;2.10;;
12048;SDS011;6085;49.452;8.502;2023-06-01T15:44:14;3.30;;;1.80;;
12048;SDS011;6085;49.452;8.502;2023-06-01T15:48:16;2.83;;;1.70;;
12048;SDS011;6085;49.452;8.502;2023-06-01T15:52:19;3.20;;;2.00;;
12048;SDS011;6085;49.452;8.502;2023-06-01T15:56:21;3.72;;;1.92;;
12048;SDS011;6085;49.452;8.502;2023-06-01T16:00:23;2.45;;;1.77;;
12048;SDS011;6085;49.452;8.502;2023-06-01T16:04:27;3.85;;;2.00;;
12048;SDS011;6085;49.452;8.502;2023-06-01T16:08:31;2.00;;;1.70;;
12048;SDS011;6085;49.452;8.502;2023-06-01T16:12:32;1.90;;;1.80;;
12048;SDS011;6085;49.452;8.502;2023-06-01T16:16:34;2.70;;;2.10;;
12048;SDS011;6085;49.452;8.502;2023-06-01T16:20:39;2.65;;;1.90;;
12048;SDS011;6085;49.452;8.502;2023-06-01T16:24:43;4.78;;;2.17;;
12048;SDS011;6085;49.452;8.502;2023-06-01T16:28:45;3.90;;;1.92;;
12048;SDS011;6085;49.452;8.502;2023-06-01T16:32:49;2.00;;;1.80;;
12048;SDS011;6085;49.452;8.502;2023-06-01T16:36:51;2.28;;;2.08;;
12048;SDS011;6085;49.452;8.502;2023-06-01T16:40:55;1.90;;;1.80;;
12048;SDS011;6085;49.452;8.502;2023-06-01T16:44:57;3.38;;;2.10;;
12048;SDS011;6085;49.452;8.502;2023-06-01T16:48:59;2.38;;;2.17;;
12048;SDS011;6085;49.452;8.502;2023-06-01T16:53:01;4.35;;;2.30;;
12048;SDS011;6085;49.452;8.502;2023-06-01T16:57:05;2.53;;;2.00;;
12048;SDS011;6085;49.452;8.502;2023-06-01T17:01:09;3.65;;;2.03;;
12048;SDS011;6085;49.452;8.502;2023-06-01T17:05:11;3.40;;;1.90;;
12048;SDS011;6085;49.452;8.502;2023-06-01T17:09:13;2.53;;;1.80;;
12048;SDS011;6085;49.452;8.502;2023-06-01T17:13:16;2.08;;;1.90;;
12048;SDS011;6085;49.452;8.502;2023-06-01T17:17:18;2.95;;;1.98;;
12048;SDS011;6085;49.452;8.502;2023-06-01T17:21:22;3.95;;;2.20;;
12048;SDS011;6085;49.452;8.502;2023-06-01T17:25:24;2.25;;;2.05;;
12048;SDS011;6085;49.452;8.502;2023-06-01T17:29:27;2.28;;;2.08;;
12048;SDS011;6085;49.452;8.502;2023-06-01T17:33:29;2.95;;;2.10;;
12048;SDS011;6085;49.452;8.502;2023-06-01T17:37:31;2.03;;;1.85;;
12048;SDS011;6085;49.452;8.502;2023-06-01T17:41:33;2.75;;;2.00;;
12048;SDS011;6085;49.452;8.502;2023-06-01T17:45:37;4.53;;;1.92;;
12048;SDS011;6085;49.452;8.502;2023-06-01T17:49:38;2.67;;;2.15;;
12048;SDS011;6085;49.452;8.502;2023-06-01T17:53:41;3.20;;;2.08;;
12048;SDS011;6085;49.452;8.502;2023-06-01T17:57:42;4.13;;;2.30;;
12048;SDS011;6085;49.452;8.502;2023-06-01T18:01:46;2.20;;;2.00;;
12048;SDS011;6085;49.452;8.502;2023-06-01T18:05:48;2.35;;;1.95;;
12048;SDS011;6085;49.452;8.502;2023-06-01T18:09:49;4.85;;;3.30;;
12048;SDS011;6085;49.452;8.502;2023-06-01T18:13:51;5.32;;;4.40;;
12048;SDS011;6085;49.452;8.502;2023-06-01T18:17:55;7.60;;;4.68;;
12048;SDS011;6085;49.452;8.502;2023-06-01T18:21:57;6.85;;;5.05;;
12048;SDS011;6085;49.452;8.502;2023-06-01T18:26:00;7.82;;;4.80;;
12048;SDS011;6085;49.452;8.502;2023-06-01T18:30:01;5.47;;;4.70;;
12048;SDS011;6085;49.452;8.502;2023-06-01T18:34:05;6.70;;;5.30;;
12048;SDS011;6085;49.452;8.502;2023-06-01T18:38:07;6.70;;;5.13;;
12048;SDS011;6085;49.452;8.502;2023-06-01T18:42:09;5.35;;;4.85;;
12048;SDS011;6085;49.452;8.502;2023-06-01T18:46:11;6.82;;;5.70;;
12048;SDS011;6085;49.452;8.502;2023-06-01T18:50:14;6.80;;;5.82;;
12048;SDS011;6085;49.452;8.502;2023-06-01T18:54:18;7.75;;;5.72;;
12048;SDS011;6085;49.452;8.502;2023-06-01T18:58:20;8.23;;;5.70;;
12048;SDS011;6085;49.452;8.502;2023-06-01T19:02:22;7.28;;;6.05;;
12048;SDS011;6085;49.452;8.502;2023-06-01T19:06:27;9.25;;;6.68;;
12048;SDS011;6085;49.452;8.502;2023-06-01T19:10:53;7.28;;;6.40;;
12048;SDS011;6085;49.452;8.502;2023-06-01T19:14:59;7.13;;;6.20;;
12048;SDS011;6085;49.452;8.502;2023-06-01T19:19:02;8.70;;;7.57;;
12048;SDS011;6085;49.452;8.502;2023-06-01T19:23:06;8.40;;;7.47;;
12048;SDS011;6085;49.452;8.502;2023-06-01T19:27:09;8.52;;;7.45;;
12048;SDS011;6085;49.452;8.502;2023-06-01T19:31:11;9.25;;;7.55;;
12048;SDS011;6085;49.452;8.502;2023-06-01T19:35:16;8.02;;;7.22;;
12048;SDS011;6085;49.452;8.502;2023-06-01T19:39:24;10.07;;;7.28;;
12048;SDS011;6085;49.452;8.502;2023-06-01T19:43:41;9.57;;;8.13;;
12048;SDS011;6085;49.452;8.502;2023-06-01T19:47:46;11.05;;;7.90;;
12048;SDS011;6085;49.452;8.502;2023-06-01T19:51:48;9.48;;;7.65;;
12048;SDS011;6085;49.452;8.502;2023-06-01T19:55:52;10.85;;;7.18;;
12048;SDS011;6085;49.452;8.502;2023-06-01T19:59:55;10.13;;;7.00;;
12048;SDS011;6085;49.452;8.502;2023-06-01T20:03:57;8.15;;;6.90;;
12048;SDS011;6085;49.452;8.502;2023-06-01T20:08:01;9.27;;;7.13;;
12048;SDS011;6085;49.452;8.502;2023-06-01T20:12:08;8.77;;;7.30;;
12048;SDS011;6085;49.452;8.502;2023-06-01T20:16:10;7.35;;;6.45;;
12048;SDS011;6085;49.452;8.502;2023-06-01T20:20:17;7.93;;;6.47;;
12048;SDS011;6085;49.452;8.502;2023-06-01T20:24:21;6.85;;;6.05;;
12048;SDS011;6085;49.452;8.502;2023-06-01T20:28:45;6.82;;;5.72;;
12048;SDS011;6085;49.452;8.502;2023-06-01T20:32:52;7.95;;;5.60;;
12048;SDS011;6085;49.452;8.502;2023-06-01T20:36:54;5.93;;;5.32;;
12048;SDS011;6085;49.452;8.502;2023-06-01T20:41:04;5.85;;;5.28;;
12048;SDS011;6085;49.452;8.502;2023-06-01T20:49:44;8.52;;;5.35;;
12048;SDS011;6085;49.452;8.502;2023-06-01T20:53:47;5.40;;;4.90;;
12048;SDS011;6085;49.452;8.502;2023-06-01T20:57:50;5.07;;;4.57;;
12048;SDS011;6085;49.452;8.502;2023-06-01T21:01:52;6.50;;;4.55;;
12048;SDS011;6085;49.452;8.502;2023-06-01T21:05:57;4.38;;;3.95;;
12048;SDS011;6085;49.452;8.502;2023-06-01T21:09:59;4.80;;;4.30;;
12048;SDS011;6085;49.452;8.502;2023-06-01T21:14:01;4.95;;;4.35;;
12048;SDS011;6085;49.452;8.502;2023-06-01T21:18:03;5.50;;;4.45;;
12048;SDS011;6085;49.452;8.502;2023-06-01T21:22:07;5.22;;;4.45;;
12048;SDS011;6085;49.452;8.502;2023-06-01T21:26:09;4.50;;;4.10;;
12048;SDS011;6085;49.452;8.502;2023-06-01T21:30:12;5.93;;;4.07;;
12048;SDS011;6085;49.452;8.502;2023-06-01T21:34:14;5.07;;;4.28;;
12048;SDS011;6085;49.452;8.502;2023-06-01T21:38:19;4.80;;;4.30;;
12048;SDS011;6085;49.452;8.502;2023-06-01T21:42:21;4.43;;;3.97;;
12048;SDS011;6085;49.452;8.502;2023-06-01T21:46:23;5.53;;;4.30;;
12048;SDS011;6085;49.452;8.502;2023-06-01T21:50:25;4.90;;;4.25;;
12048;SDS011;6085;49.452;8.502;2023-06-01T21:54:29;4.63;;;4.03;;
12048;SDS011;6085;49.452;8.502;2023-06-01T21:58:33;4.38;;;4.00;;
12048;SDS011;6085;49.452;8.502;2023-06-01T22:02:37;4.50;;;4.10;;
12048;SDS011;6085;49.452;8.502;2023-06-01T22:06:39;6.88;;;4.07;;
12048;SDS011;6085;49.452;8.502;2023-06-01T22:10:42;6.78;;;4.53;;
12048;SDS011;6085;49.452;8.502;2023-06-01T22:14:44;4.82;;;4.25;;
12048;SDS011;6085;49.452;8.502;2023-06-01T22:18:47;5.32;;;4.40;;
12048;SDS011;6085;49.452;8.502;2023-06-01T22:22:49;5.60;;;4.32;;
12048;SDS011;6085;49.452;8.502;2023-06-01T22:26:52;6.63;;;4.72;;
12048;SDS011;6085;49.452;8.502;2023-06-01T22:30:54;5.97;;;4.43;;
12048;SDS011;6085;49.452;8.502;2023-06-01T22:34:56;4.63;;;4.22;;
12048;SDS011;6085;49.452;8.502;2023-06-01T22:38:58;5.72;;;5.13;;
12048;SDS011;6085;49.452;8.502;2023-06-01T22:43:02;5.32;;;4.57;;
12048;SDS011;6085;49.452;8.502;2023-06-01T22:47:04;5.28;;;4.78;;
12048;SDS011;6085;49.452;8.502;2023-06-01T22:51:07;7.07;;;5.32;;
12048;SDS011;6085;49.452;8.502;2023-06-01T22:55:10;7.82;;;5.13;;
12048;SDS011;6085;49.452;8.502;2023-06-01T22:59:13;6.20;;;5.20;;
12048;SDS011;6085;49.452;8.502;2023-06-01T23:03:15;5.50;;;5.00;;
12048;SDS011;6085;49.452;8.502;2023-06-01T23:07:18;8.82;;;5.57;;
12048;SDS011;6085;49.452;8.502;2023-06-01T23:11:20;8.82;;;5.22;;
12048;SDS011;6085;49.452;8.502;2023-06-01T23:15:28;10.27;;;5.30;;
12048;SDS011;6085;49.452;8.502;2023-06-01T23:19:31;6.75;;;5.43;;
12048;SDS011;6085;49.452;8.502;2023-06-01T23:23:37;5.70;;;5.20;;
12048;SDS011;6085;49.452;8.502;2023-06-01T23:27:41;5.47;;;4.90;;
12048;SDS011;6085;49.452;8.502;2023-06-01T23:31:45;6.47;;;5.53;;
12048;SDS011;6085;49.452;8.502;2023-06-01T23:35:47;6.72;;;5.28;;
12048;SDS011;6085;49.452;8.502;2023-06-01T23:39:50;5.75;;;5.18;;
12048;SDS011;6085;49.452;8.502;2023-06-01T23:43:52;6.28;;;5.05;;
12048;SDS011;6085;49.452;8.502;2023-06-01T23:47:55;7.38;;;5.30;;
12048;SDS011;6085;49.452;8.502;2023-06-01T23:51:57;5.47;;;4.97;;
12048;SDS011;6085;49.452;8.502;2023-06-01T23:56:00;5.95;;;5.30;;
